LIRN/NAP METAR and TAF weather

Enter ICAO airport designator
Station Type Date Time Source
LIRN METAR 2020/07/14 16:50 UTC NOAA

LIRN 141650Z 26007KT 200V290 9999 FEW040 28/12 Q1012 NOSIG


Station Type Date Time Source
LIRN Decoded METAR 2020/07/14 16:50 UTC NOAA

Napoli / Capodichino, Italy (LIRN) 40-51N 014-18E 72M
Jul 14, 2020 - 12:50 PM EDT / 2020.07.14 1650 UTC
Wind: from the W (260 degrees) at 8 MPH (7 KT) (direction variable):0
Visibility: greater than 7 mile(s):0
Sky conditions: mostly clear
Temperature: 82 F (28 C)
Dew Point: 53 F (12 C)
Relative Humidity: 37%
Pressure (altimeter): 29.88 in. Hg (1012 hPa)
ob: LIRN 141650Z 26007KT 200V290 9999 FEW040 28/12 Q1012 NOSIG
cycle: 17

Station Type Date Time Source
LIRN TAF 2020/07/14 12:21 UTC NOAA

TAF LIRN 141100Z 1412/1512 21010KT 9999 SCT040
BECMG 1416/1418 VRB05KT
BECMG 1509/1511 23012KT

Example: see airport list